Time;durP1;ratioP1;P1;durP2;ratioP2;P2;SDS_P1;SDS_P2;PMS_P1;PMS_P2;Temp;Humidity;BMP_temperature;BMP_pressure;BME280_temperature;BME280_humidity;BME280_pressure;Samples;Min_cycle;Max_cycle;Signal;HPM_P1;HPM_P2
2022/12/28 00:01:54;;;;;;;6.17;5.87;;;6.00;99.90;;;;;;5090080;28;20173;-64
2022/12/28 00:04:19;;;;;;;6.33;5.90;;;6.00;99.90;;;;;;5085723;28;20649;-64
2022/12/28 00:06:46;;;;;;;5.77;5.20;;;6.10;99.90;;;;;;5072816;28;20170;-64
2022/12/28 00:09:12;;;;;;;5.50;5.20;;;6.20;99.90;;;;;;5077775;28;20683;-64
2022/12/28 00:11:37;;;;;;;5.30;5.10;;;6.20;99.90;;;;;;5093001;28;20180;-64
2022/12/28 00:14:03;;;;;;;5.60;5.30;;;6.20;99.90;;;;;;5088894;28;20198;-64
2022/12/28 00:16:34;;;;;;;5.43;5.20;;;6.30;99.90;;;;;;5072576;28;20174;-64
2022/12/28 00:19:03;;;;;;;5.50;5.10;;;6.40;99.90;;;;;;5074946;28;20639;-64
2022/12/28 00:21:29;;;;;;;5.40;5.20;;;6.40;99.90;;;;;;5092622;28;20173;-64
2022/12/28 00:23:57;;;;;;;4.77;4.57;;;6.50;99.90;;;;;;5091102;28;20183;-64
2022/12/28 00:26:23;;;;;;;5.00;4.80;;;6.50;99.90;;;;;;5072402;28;20625;-64
2022/12/28 00:28:48;;;;;;;5.20;5.00;;;6.60;99.90;;;;;;5072322;28;20244;-64
2022/12/28 00:31:14;;;;;;;5.63;5.20;;;6.60;99.90;;;;;;5073109;28;20176;-64
2022/12/28 00:33:41;;;;;;;5.50;5.20;;;6.50;99.90;;;;;;5072355;28;20220;-64
2022/12/28 00:36:09;;;;;;;5.43;4.97;;;6.40;99.90;;;;;;5075755;28;20182;-63
2022/12/28 00:38:37;;;;;;;5.73;5.23;;;6.40;99.90;;;;;;5072187;28;20729;-64
2022/12/28 00:41:04;;;;;;;4.70;4.50;;;6.30;99.90;;;;;;5089122;28;20223;-64
2022/12/28 00:43:30;;;;;;;5.67;5.37;;;6.30;99.90;;;;;;5092294;28;20165;-64
2022/12/28 00:45:55;;;;;;;5.40;5.20;;;6.30;99.90;;;;;;5076040;28;20261;-64
2022/12/28 00:48:21;;;;;;;5.60;5.20;;;6.20;99.90;;;;;;5071934;28;20588;-63
2022/12/28 00:50:46;;;;;;;5.70;5.40;;;6.30;99.90;;;;;;5085766;28;20177;-64
2022/12/28 00:53:13;;;;;;;5.50;5.30;;;6.20;99.90;;;;;;5092241;28;20530;-63
2022/12/28 00:55:38;;;;;;;5.77;5.37;;;6.20;99.90;;;;;;5079488;28;20218;-63
2022/12/28 00:58:05;;;;;;;6.33;6.00;;;6.30;99.90;;;;;;5079359;28;20583;-63
2022/12/28 01:00:31;;;;;;;5.77;5.47;;;6.30;99.90;;;;;;5091843;28;20173;-64
2022/12/28 01:02:57;;;;;;;5.40;5.00;;;6.30;99.90;;;;;;5085730;28;20174;-63
2022/12/28 01:05:23;;;;;;;7.27;6.97;;;6.30;99.90;;;;;;5071900;28;20177;-63
2022/12/28 01:07:49;;;;;;;5.57;5.20;;;6.30;99.90;;;;;;5076115;28;20180;-61
2022/12/28 01:10:15;;;;;;;5.63;5.23;;;6.30;99.90;;;;;;5091482;28;20185;-63
2022/12/28 01:12:41;;;;;;;5.57;5.27;;;6.40;99.90;;;;;;5089004;28;20177;-63
2022/12/28 01:15:08;;;;;;;5.13;4.93;;;6.40;99.90;;;;;;5071586;28;20197;-64
2022/12/28 01:17:34;;;;;;;6.33;6.03;;;6.40;99.90;;;;;;5072792;28;20170;-63
2022/12/28 01:19:59;;;;;;;5.60;5.27;;;6.40;99.90;;;;;;5091469;28;20540;-64
2022/12/28 01:22:26;;;;;;;5.13;4.93;;;6.40;99.90;;;;;;5091759;28;20244;-63
2022/12/28 01:24:51;;;;;;;7.07;5.10;;;6.40;99.90;;;;;;5072312;28;20189;-63
2022/12/28 01:27:17;;;;;;;5.67;5.30;;;6.40;99.90;;;;;;5071571;28;20170;-63
2022/12/28 01:29:43;;;;;;;5.37;4.97;;;6.40;99.90;;;;;;5089506;28;20198;-63
2022/12/28 01:32:08;;;;;;;5.30;5.10;;;6.40;99.90;;;;;;5091614;28;20187;-63
2022/12/28 01:34:34;;;;;;;5.90;5.57;;;6.40;99.90;;;;;;5074966;28;20205;-63
2022/12/28 01:36:59;;;;;;;5.40;5.10;;;6.40;99.90;;;;;;5070590;28;20202;-63
2022/12/28 01:39:25;;;;;;;5.73;5.23;;;6.40;99.90;;;;;;5085418;28;20209;-64
2022/12/28 01:41:50;;;;;;;5.87;5.30;;;6.40;99.90;;;;;;5091685;28;20503;-63
2022/12/28 01:44:16;;;;;;;5.67;5.37;;;6.40;99.90;;;;;;5078475;28;20264;-63
2022/12/28 01:47:03;;;;;;;5.20;5.00;;;6.50;99.90;;;;;;5071486;28;20521;-64
2022/12/28 01:49:32;;;;;;;5.03;4.73;;;6.50;99.90;;;;;;5085009;28;20228;-62
2022/12/28 01:52:04;;;;;;;6.23;5.73;;;6.50;99.90;;;;;;5081414;28;20173;-64
2022/12/28 01:54:50;;;;;;;5.87;5.47;;;6.50;99.90;;;;;;5071616;28;20284;-63
2022/12/28 01:57:17;;;;;;;5.30;5.10;;;6.60;99.90;;;;;;5086661;28;20184;-63
2022/12/28 01:59:47;;;;;;;5.37;5.10;;;6.60;99.90;;;;;;5095167;28;20220;-63
2022/12/28 02:02:13;;;;;;;5.33;5.00;;;6.60;99.90;;;;;;5084473;28;20311;-62
2022/12/28 02:04:39;;;;;;;5.50;5.20;;;6.60;99.90;;;;;;5073994;28;20185;-63
2022/12/28 02:07:05;;;;;;;5.47;5.17;;;6.70;99.90;;;;;;5076423;28;20651;-63
2022/12/28 02:09:41;;;;;;;5.40;5.20;;;6.70;99.90;;;;;;5074928;28;20193;-62
2022/12/28 02:12:12;;;;;;;5.47;5.07;;;6.80;99.90;;;;;;5084808;28;20642;-62
2022/12/28 02:14:39;;;;;;;5.40;5.20;;;6.80;99.90;;;;;;5095309;28;20204;-62
2022/12/28 02:17:08;;;;;;;5.67;5.37;;;6.90;99.90;;;;;;5089500;28;20201;-62
2022/12/28 02:19:44;;;;;;;5.57;5.33;;;6.90;99.90;;;;;;5073185;28;20190;-62
2022/12/28 02:22:47;;;;;;;6.53;6.13;;;7.00;99.90;;;;;;5074845;28;20174;-62
2022/12/28 02:25:30;;;;;;;6.57;6.00;;;7.10;99.90;;;;;;5075006;28;20182;-62
2022/12/28 02:28:10;;;;;;;7.73;6.17;;;7.10;99.90;;;;;;5074774;28;20624;-62
2022/12/28 02:30:43;;;;;;;6.20;5.90;;;7.10;99.90;;;;;;5090377;28;20524;-63
2022/12/28 02:33:22;;;;;;;6.87;6.57;;;7.20;99.90;;;;;;5094980;28;20188;-63
2022/12/28 02:35:51;;;;;;;7.30;6.90;;;7.20;99.90;;;;;;5076587;28;20197;-63
2022/12/28 02:38:33;;;;;;;7.30;6.80;;;7.30;99.90;;;;;;5074520;28;20591;-63
2022/12/28 02:41:05;;;;;;;6.30;6.00;;;7.30;99.90;;;;;;5091886;28;20239;-62
2022/12/28 02:43:32;;;;;;;6.50;6.20;;;7.40;99.90;;;;;;5094968;28;20659;-62
2022/12/28 02:52:25;;;;;;;6.50;5.90;;;7.50;99.90;;;;;;5094881;28;20184;-60
2022/12/28 02:58:23;;;;;;;6.37;5.97;;;7.60;99.90;;;;;;5074281;28;20231;-62
2022/12/28 03:01:17;;;;;;;5.77;5.50;;;7.60;99.90;;;;;;5087835;28;20261;-62
2022/12/28 03:04:21;;;;;;;5.80;5.50;;;7.70;99.90;;;;;;5094549;28;20656;-62
2022/12/28 03:10:06;;;;;;;5.60;5.40;;;7.70;99.90;;;;;;5075140;28;20625;-62
2022/12/28 03:12:44;;;;;;;6.17;5.80;;;7.80;99.90;;;;;;5073916;28;20185;-62
2022/12/28 03:15:28;;;;;;;8.23;6.80;;;7.80;99.90;;;;;;5080733;28;20262;-62
2022/12/28 03:31:53;;;;;;;6.47;5.90;;;7.70;99.90;;;;;;5073813;28;20185;-62
2022/12/28 03:34:18;;;;;;;6.03;5.73;;;7.70;99.90;;;;;;5073391;28;20202;-63
2022/12/28 03:37:24;;;;;;;6.50;5.90;;;7.70;99.90;;;;;;5090903;28;20545;-62
2022/12/28 03:39:56;;;;;;;6.17;5.87;;;7.70;99.90;;;;;;5073790;28;20577;-61
2022/12/28 03:45:26;;;;;;;6.17;5.87;;;7.70;99.90;;;;;;5053298;28;20198;-62
2022/12/28 03:47:52;;;;;;;6.17;5.87;;;7.80;99.90;;;;;;5056142;28;20179;-62
2022/12/28 03:50:20;;;;;;;6.13;5.83;;;7.80;99.90;;;;;;5092994;28;20288;-62
2022/12/28 03:52:46;;;;;;;6.50;6.20;;;7.80;99.90;;;;;;5075783;28;20182;-61
2022/12/28 03:55:15;;;;;;;6.53;6.23;;;7.80;99.90;;;;;;5072929;28;20332;-62
2022/12/28 03:57:41;;;;;;;6.33;5.83;;;7.80;99.90;;;;;;5089023;28;20202;-62
2022/12/28 04:00:10;;;;;;;6.00;5.50;;;7.90;99.90;;;;;;5092878;28;20276;-62
2022/12/28 04:02:37;;;;;;;6.03;5.73;;;7.90;99.90;;;;;;5077927;28;20178;-62
2022/12/28 04:05:04;;;;;;;6.00;5.60;;;8.00;99.90;;;;;;5072870;28;20687;-62
2022/12/28 04:07:29;;;;;;;5.67;5.47;;;8.00;99.90;;;;;;5073835;28;20182;-62
2022/12/28 04:09:55;;;;;;;6.70;6.20;;;8.10;99.90;;;;;;5072287;28;20201;-62
2022/12/28 04:12:21;;;;;;;5.70;5.40;;;8.10;99.90;;;;;;5087493;28;20173;-62
2022/12/28 04:14:46;;;;;;;5.57;5.27;;;8.20;99.90;;;;;;5092881;28;20258;-62
2022/12/28 04:17:12;;;;;;;5.87;5.57;;;8.20;99.90;;;;;;5079057;28;20236;-62
2022/12/28 04:19:37;;;;;;;5.60;5.20;;;8.30;99.90;;;;;;5072231;28;20293;-62
2022/12/28 04:22:03;;;;;;;5.93;5.53;;;8.40;99.90;;;;;;5083488;28;20181;-62
2022/12/28 04:24:29;;;;;;;5.70;5.50;;;8.40;99.90;;;;;;5092627;28;20583;-62
2022/12/28 04:26:54;;;;;;;6.67;6.27;;;8.50;99.90;;;;;;5083053;28;20184;-63
2022/12/28 04:29:20;;;;;;;8.47;6.00;;;8.50;99.90;;;;;;5072187;28;20204;-60
2022/12/28 04:31:46;;;;;;;5.60;5.30;;;8.50;99.90;;;;;;5079930;28;20204;-62
2022/12/28 04:34:12;;;;;;;6.20;5.90;;;8.60;99.90;;;;;;5092532;28;20204;-62
2022/12/28 04:36:38;;;;;;;6.63;6.33;;;8.70;99.90;;;;;;5085419;28;20269;-62
2022/12/28 04:39:04;;;;;;;6.27;5.97;;;8.70;99.90;;;;;;5071936;28;20739;-62
2022/12/28 04:41:30;;;;;;;5.43;5.20;;;8.70;99.90;;;;;;5076206;28;20786;-62
2022/12/28 04:43:56;;;;;;;6.17;5.87;;;8.80;99.90;;;;;;5092399;28;20196;-62
2022/12/28 04:46:22;;;;;;;5.63;5.43;;;8.80;99.90;;;;;;5089479;28;20272;-62
2022/12/28 04:48:48;;;;;;;6.17;5.73;;;8.80;99.90;;;;;;5071998;28;20190;-62
2022/12/28 04:51:20;;;;;;;6.23;5.93;;;8.90;99.90;;;;;;5072504;28;20261;-63
2022/12/28 04:53:46;;;;;;;5.63;5.43;;;8.90;99.90;;;;;;5092202;28;20534;-62
2022/12/28 04:56:14;;;;;;;6.63;6.13;;;8.90;99.90;;;;;;5091758;28;20257;-63
2022/12/28 04:58:40;;;;;;;5.40;5.17;;;9.00;99.90;;;;;;5071827;28;20197;-62
2022/12/28 05:01:14;;;;;;;5.30;4.90;;;9.10;99.90;;;;;;5071543;28;20179;-62
2022/12/28 05:03:41;;;;;;;5.70;5.40;;;9.20;99.90;;;;;;5073002;28;20174;-63
2022/12/28 05:06:11;;;;;;;5.17;4.57;;;9.20;99.90;;;;;;5071767;28;20261;-62
2022/12/28 05:08:37;;;;;;;5.40;5.10;;;9.30;99.90;;;;;;5090470;28;20201;-62
2022/12/28 05:11:06;;;;;;;5.40;4.77;;;9.30;99.90;;;;;;5091969;28;20260;-62
2022/12/28 05:13:32;;;;;;;4.67;4.43;;;9.30;99.90;;;;;;5073895;28;20174;-63
2022/12/28 05:16:06;;;;;;;4.77;4.57;;;9.30;99.90;;;;;;5071533;28;20206;-62
2022/12/28 05:18:32;;;;;;;5.03;4.73;;;9.40;99.90;;;;;;5088663;28;20203;-62
2022/12/28 05:21:00;;;;;;;4.50;4.30;;;9.40;99.90;;;;;;5091524;28;20180;-62
2022/12/28 05:23:28;;;;;;;4.70;4.50;;;9.40;99.90;;;;;;5075664;28;20186;-62
2022/12/28 05:25:54;;;;;;;4.70;4.50;;;9.40;99.90;;;;;;5071532;28;20643;-62
2022/12/28 05:28:20;;;;;;;5.27;4.73;;;9.40;99.90;;;;;;5085805;28;20209;-62
2022/12/28 05:30:45;;;;;;;4.97;4.77;;;9.40;99.90;;;;;;5081406;28;20185;-63
2022/12/28 05:33:11;;;;;;;5.07;4.50;;;9.40;99.90;;;;;;5071456;28;20190;-62
2022/12/28 05:35:36;;;;;;;4.80;4.50;;;9.40;99.90;;;;;;5078596;28;20240;-62
2022/12/28 05:38:02;;;;;;;4.60;4.40;;;9.40;99.90;;;;;;5091317;28;20169;-62
2022/12/28 05:40:28;;;;;;;4.37;4.07;;;9.50;99.90;;;;;;5084875;28;20247;-62
2022/12/28 05:42:53;;;;;;;4.50;4.30;;;9.40;99.90;;;;;;5071336;28;20166;-61
2022/12/28 05:45:19;;;;;;;4.17;3.97;;;9.50;99.90;;;;;;5075529;28;20174;-62
2022/12/28 05:47:45;;;;;;;5.20;4.13;;;9.40;99.90;;;;;;5091626;28;20597;-61
2022/12/28 05:50:10;;;;;;;5.13;4.93;;;9.50;99.90;;;;;;5082595;28;20225;-63
2022/12/28 05:52:36;;;;;;;6.03;5.23;;;9.50;99.90;;;;;;5071145;28;20516;-62
2022/12/28 05:55:02;;;;;;;6.53;6.23;;;9.50;99.90;;;;;;5077524;28;20227;-62
2022/12/28 05:57:27;;;;;;;5.50;5.27;;;9.60;99.90;;;;;;5091544;28;20204;-61
2022/12/28 05:59:53;;;;;;;5.10;4.90;;;9.60;99.90;;;;;;5071283;28;20780;-64
2022/12/28 06:02:19;;;;;;;5.03;4.83;;;9.70;99.90;;;;;;5071218;28;20542;-63
2022/12/28 06:04:44;;;;;;;5.10;4.70;;;9.70;98.70;;;;;;5072193;28;20193;-62
2022/12/28 06:07:10;;;;;;;4.70;4.40;;;9.70;93.70;;;;;;5071166;28;20591;-61
2022/12/28 06:09:35;;;;;;;4.40;4.20;;;9.80;95.90;;;;;;5086392;28;20205;-63
2022/12/28 06:12:03;;;;;;;4.70;4.50;;;9.80;98.00;;;;;;5091330;28;20622;-63
2022/12/28 06:14:29;;;;;;;5.53;5.33;;;9.80;99.90;;;;;;5076627;28;20202;-62
2022/12/28 06:16:55;;;;;;;4.87;4.57;;;9.80;99.90;;;;;;5069847;28;20643;-62
2022/12/28 06:19:20;;;;;;;5.07;4.87;;;9.80;99.90;;;;;;5082985;28;20205;-61
2022/12/28 06:21:46;;;;;;;4.33;4.13;;;9.80;99.40;;;;;;5091177;28;20176;-63
2022/12/28 06:24:12;;;;;;;4.47;4.27;;;9.80;99.90;;;;;;5080355;28;20596;-62
2022/12/28 06:26:40;;;;;;;4.77;4.40;;;9.80;99.90;;;;;;5073837;28;20178;-61
2022/12/28 06:29:05;;;;;;;4.67;4.47;;;9.80;99.90;;;;;;5090900;28;20189;-62
2022/12/28 06:31:37;;;;;;;5.07;4.77;;;9.80;99.90;;;;;;5089409;28;20548;-63
2022/12/28 06:34:04;;;;;;;8.90;4.30;;;9.80;99.90;;;;;;5090988;28;20202;-61
2022/12/28 06:36:39;;;;;;;5.97;5.67;;;9.70;99.90;;;;;;5086710;28;20267;-63
2022/12/28 06:39:07;;;;;;;6.43;6.13;;;9.70;99.90;;;;;;5070499;28;20661;-63
2022/12/28 06:41:32;;;;;;;4.90;4.70;;;9.70;99.90;;;;;;5076157;28;20235;-62
2022/12/28 06:43:58;;;;;;;6.90;4.40;;;9.70;99.90;;;;;;5094697;28;20185;-62
2022/12/28 06:46:26;;;;;;;4.17;3.97;;;9.70;99.90;;;;;;5080241;28;20213;-62
2022/12/28 06:48:52;;;;;;;4.57;4.37;;;9.70;99.90;;;;;;5074157;28;20193;-63
2022/12/28 06:51:26;;;;;;;4.80;4.50;;;9.70;99.90;;;;;;5082403;28;20207;-62
2022/12/28 06:53:53;;;;;;;4.00;3.90;;;9.70;99.90;;;;;;5076694;28;20537;-63
2022/12/28 06:56:38;;;;;;;4.50;4.30;;;9.80;99.90;;;;;;5074222;28;20245;-62
2022/12/28 06:59:04;;;;;;;4.87;4.67;;;9.80;99.90;;;;;;5087500;28;20267;-62
2022/12/28 07:01:33;;;;;;;4.47;4.20;;;9.80;99.90;;;;;;5094390;28;20170;-63
2022/12/28 07:04:01;;;;;;;4.27;4.07;;;9.80;99.90;;;;;;5092647;28;20177;-62
2022/12/28 07:06:28;;;;;;;4.30;4.10;;;9.80;99.90;;;;;;5094196;28;20485;-62
2022/12/28 07:09:02;;;;;;;4.40;4.20;;;9.80;99.90;;;;;;5082824;28;20201;-63
2022/12/28 07:11:29;;;;;;;4.27;4.07;;;9.80;99.90;;;;;;5073753;28;20174;-63
2022/12/28 07:13:55;;;;;;;4.60;4.40;;;9.90;99.90;;;;;;5084413;28;20185;-63
2022/12/28 07:16:22;;;;;;;4.30;4.10;;;9.90;99.90;;;;;;5094297;28;20260;-63
2022/12/28 07:18:48;;;;;;;4.80;4.60;;;9.90;99.90;;;;;;5080671;28;20210;-63
2022/12/28 07:21:20;;;;;;;4.80;4.47;;;9.80;99.90;;;;;;5073480;28;20196;-63
2022/12/28 07:23:47;;;;;;;4.80;4.50;;;9.90;99.90;;;;;;5085648;28;20182;-62
2022/12/28 07:26:16;;;;;;;4.67;4.20;;;9.80;99.90;;;;;;5086923;28;20676;-63
2022/12/28 07:28:44;;;;;;;4.60;4.40;;;9.90;99.90;;;;;;5071749;28;20193;-63
2022/12/28 07:31:24;;;;;;;5.00;4.17;;;9.90;99.90;;;;;;5077014;28;20181;-63
2022/12/28 07:33:51;;;;;;;4.57;4.37;;;9.90;99.90;;;;;;5093379;28;20177;-63
2022/12/28 07:36:19;;;;;;;4.60;4.40;;;9.90;99.90;;;;;;5086297;28;20170;-63
2022/12/28 07:38:45;;;;;;;4.03;3.93;;;9.90;99.90;;;;;;5071757;28;20209;-63
2022/12/28 07:41:19;;;;;;;4.90;4.60;;;9.90;99.90;;;;;;5077467;28;20189;-62
2022/12/28 07:43:45;;;;;;;4.40;4.20;;;9.90;99.90;;;;;;5093614;28;20173;-63
2022/12/28 07:46:13;;;;;;;4.33;4.13;;;9.90;99.90;;;;;;5088855;28;20543;-63
2022/12/28 07:48:40;;;;;;;4.73;4.53;;;9.90;99.90;;;;;;5072979;28;20563;-62
2022/12/28 07:51:15;;;;;;;4.30;4.10;;;9.90;99.90;;;;;;5074843;28;20195;-63
2022/12/28 07:53:43;;;;;;;4.23;4.03;;;9.90;99.90;;;;;;5081791;28;20550;-63
2022/12/28 07:56:09;;;;;;;4.80;4.60;;;10.00;99.90;;;;;;5093147;28;20235;-63
2022/12/28 07:58:35;;;;;;;5.27;4.87;;;10.00;99.90;;;;;;5093190;28;20556;-62
2022/12/28 08:01:07;;;;;;;4.33;4.13;;;10.00;99.90;;;;;;5092750;28;20178;-63
2022/12/28 08:03:34;;;;;;;4.83;4.43;;;10.00;99.90;;;;;;5093159;28;20196;-63
2022/12/28 08:06:14;;;;;;;4.70;4.50;;;10.00;99.90;;;;;;5092027;28;20206;-62
2022/12/28 08:08:44;;;;;;;4.50;4.30;;;10.00;99.90;;;;;;5092791;28;20586;-63
2022/12/28 08:11:13;;;;;;;4.83;4.63;;;10.10;99.90;;;;;;5092642;28;20235;-63
2022/12/28 08:13:40;;;;;;;4.23;4.00;;;10.10;99.90;;;;;;5092966;28;20177;-61
2022/12/28 08:16:07;;;;;;;4.30;4.10;;;10.10;99.90;;;;;;5092711;28;20661;-62
2022/12/28 08:18:33;;;;;;;4.40;4.20;;;10.10;99.90;;;;;;5092753;28;20200;-62
2022/12/28 08:21:07;;;;;;;5.23;5.03;;;10.20;99.90;;;;;;5092330;28;20174;-63
2022/12/28 08:23:32;;;;;;;4.50;4.27;;;10.20;99.90;;;;;;5090868;28;20197;-63
2022/12/28 08:26:09;;;;;;;4.37;4.17;;;10.20;99.90;;;;;;5051906;28;20213;-62
2022/12/28 08:28:36;;;;;;;5.27;4.87;;;10.20;99.90;;;;;;5050874;28;20263;-62
2022/12/28 08:31:12;;;;;;;4.60;4.40;;;10.30;99.90;;;;;;5066038;28;20186;-62
2022/12/28 08:33:38;;;;;;;4.97;4.70;;;10.30;99.90;;;;;;5072317;28;20647;-62
2022/12/28 08:36:06;;;;;;;4.97;4.77;;;10.30;99.90;;;;;;5070911;28;20247;-63
2022/12/28 08:38:32;;;;;;;4.53;4.33;;;10.40;99.90;;;;;;5096537;22;20200;-65
2022/12/28 08:41:02;;;;;;;4.60;4.40;;;10.40;99.90;;;;;;5051896;28;20520;-62
2022/12/28 08:43:29;;;;;;;4.60;4.40;;;10.40;99.90;;;;;;5034312;28;20181;-63
2022/12/28 08:46:04;;;;;;;4.60;4.40;;;10.40;99.90;;;;;;5051993;28;20166;-65
2022/12/28 08:48:30;;;;;;;4.67;4.47;;;10.40;99.90;;;;;;5052044;28;20643;-62
2022/12/28 08:51:01;;;;;;;5.10;4.80;;;10.50;99.90;;;;;;5051444;28;20174;-63
2022/12/28 08:53:26;;;;;;;4.87;4.67;;;10.50;99.90;;;;;;5052067;28;20174;-62
2022/12/28 08:55:52;;;;;;;5.03;4.83;;;10.50;99.90;;;;;;5048455;28;20988;-63
2022/12/28 08:58:18;;;;;;;5.50;5.20;;;10.50;99.90;;;;;;5052176;28;20253;-63
2022/12/28 09:00:44;;;;;;;4.63;4.43;;;10.50;99.90;;;;;;5051141;28;20204;-63
2022/12/28 09:03:09;;;;;;;7.10;4.57;;;10.50;99.90;;;;;;5051685;28;20209;-64
2022/12/28 09:05:38;;;;;;;5.00;4.70;;;10.60;99.90;;;;;;5033880;28;20175;-65
2022/12/28 09:08:04;;;;;;;4.70;4.50;;;10.60;99.90;;;;;;5051540;28;20233;-64
2022/12/28 09:10:30;;;;;;;5.73;4.50;;;10.60;99.90;;;;;;5051350;28;20659;-64
2022/12/28 09:12:56;;;;;;;4.73;4.50;;;10.60;99.90;;;;;;5051620;28;20574;-64
2022/12/28 09:15:21;;;;;;;4.67;4.20;;;10.60;99.90;;;;;;5051574;28;20221;-64
2022/12/28 09:17:47;;;;;;;4.17;3.97;;;10.70;99.90;;;;;;5058989;28;20163;-64
2022/12/28 09:20:13;;;;;;;4.20;4.00;;;10.70;95.40;;;;;;5062089;28;20732;-64
2022/12/28 09:22:38;;;;;;;4.77;4.57;;;10.70;99.80;;;;;;5057310;28;20682;-64
2022/12/28 09:25:04;;;;;;;6.87;6.37;;;10.70;94.60;;;;;;5051519;28;20228;-63
2022/12/28 09:27:30;;;;;;;4.60;4.40;;;10.80;97.10;;;;;;5037755;28;20241;-64
2022/12/28 09:29:56;;;;;;;4.40;4.20;;;10.80;95.60;;;;;;5031090;28;20202;-65
2022/12/28 09:32:21;;;;;;;4.57;4.37;;;10.80;99.90;;;;;;5031617;28;20180;-64
2022/12/28 09:34:47;;;;;;;4.67;3.90;;;10.80;93.00;;;;;;5030873;28;20203;-64
2022/12/28 09:37:12;;;;;;;5.00;4.70;;;10.80;83.40;;;;;;5031570;28;20596;-63
2022/12/28 09:39:38;;;;;;;4.40;4.20;;;10.90;86.90;;;;;;5030953;28;20257;-65
2022/12/28 09:42:13;;;;;;;4.20;4.00;;;10.90;78.60;;;;;;5031288;28;20606;-64
2022/12/28 09:44:48;;;;;;;4.97;4.77;;;11.10;84.90;;;;;;5013677;28;20225;-64
2022/12/28 09:47:43;;;;;;;4.37;4.17;;;11.20;43.00;;;;;;5031381;28;20258;-64
2022/12/28 09:50:15;;;;;;;4.10;3.90;;;11.20;29.50;;;;;;5030919;28;20191;-64
2022/12/28 09:52:55;;;;;;;4.27;3.97;;;11.30;37.60;;;;;;5031240;28;20167;-64
2022/12/28 09:55:22;;;;;;;3.77;3.60;;;11.40;25.00;;;;;;5031319;28;20207;-64
2022/12/28 09:57:50;;;;;;;3.90;3.70;;;11.50;11.60;;;;;;5033325;28;20636;-64
2022/12/28 10:00:36;;;;;;;4.40;4.20;;;11.60;12.70;;;;;;5050452;28;20217;-63
2022/12/28 10:03:10;;;;;;;4.30;4.10;;;11.60;1.00;;;;;;5051035;28;20217;-64
2022/12/28 10:05:36;;;;;;;3.80;3.60;;;11.60;1.00;;;;;;5050761;28;20175;-64
2022/12/28 10:08:02;;;;;;;3.80;3.60;;;11.50;1.00;;;;;;5051000;28;20220;-64
2022/12/28 10:10:29;;;;;;;4.80;4.13;;;11.50;8.40;;;;;;5050801;28;20274;-64
2022/12/28 10:12:56;;;;;;;4.13;3.93;;;11.40;9.50;;;;;;5050741;28;20171;-64
2022/12/28 10:15:26;;;;;;;3.67;3.57;;;11.30;22.00;;;;;;5051100;28;20195;-64
2022/12/28 10:17:52;;;;;;;4.00;3.80;;;11.40;26.30;;;;;;5055031;28;20166;-64
2022/12/28 10:20:22;;;;;;;3.90;3.70;;;11.30;17.40;;;;;;5054488;28;20668;-64
2022/12/28 10:22:51;;;;;;;4.17;3.97;;;11.30;20.40;;;;;;5036721;28;20171;-65
2022/12/28 10:25:21;;;;;;;4.37;3.90;;;11.40;29.40;;;;;;5054673;28;20641;-64
2022/12/28 10:27:46;;;;;;;4.10;4.00;;;11.40;15.00;;;;;;5054715;28;20171;-64
2022/12/28 10:30:17;;;;;;;3.93;3.80;;;11.40;3.70;;;;;;5054082;28;20194;-64
2022/12/28 10:32:57;;;;;;;4.00;3.80;;;11.40;8.80;;;;;;5036036;28;20221;-65
2022/12/28 10:35:28;;;;;;;4.10;3.90;;;11.40;1.00;;;;;;5034511;28;20216;-64
2022/12/28 10:38:04;;;;;;;3.80;3.70;;;11.50;5.60;;;;;;5047756;28;20545;-64
2022/12/28 10:40:36;;;;;;;3.90;3.70;;;11.50;4.30;;;;;;5053874;28;20225;-64
2022/12/28 10:43:03;;;;;;;3.67;3.47;;;11.50;1.00;;;;;;5053638;28;20177;-64
2022/12/28 10:45:38;;;;;;;4.40;4.20;;;11.60;4.80;;;;;;5054382;28;20167;-64
2022/12/28 10:48:36;;;;;;;3.97;3.77;;;11.70;1.00;;;;;;5053824;28;20592;-63
2022/12/28 10:51:14;;;;;;;4.50;4.30;;;11.70;1.00;;;;;;5041833;28;20556;-64
2022/12/28 10:53:42;;;;;;;4.40;4.20;;;11.70;1.00;;;;;;5023566;28;20194;-64
2022/12/28 10:56:13;;;;;;;4.30;4.10;;;11.70;1.00;;;;;;5034214;28;20199;-64
2022/12/28 10:58:41;;;;;;;3.87;3.67;;;11.70;4.90;;;;;;5048031;28;20179;-64
2022/12/28 11:01:13;;;;;;;4.40;4.00;;;11.70;3.90;;;;;;5053477;28;20179;-64
2022/12/28 11:03:41;;;;;;;3.90;3.70;;;11.70;1.00;;;;;;5054249;28;20628;-64
2022/12/28 11:06:16;;;;;;;3.70;3.50;;;11.70;1.00;;;;;;5053868;28;20171;-64
2022/12/28 11:08:44;;;;;;;4.20;4.00;;;11.70;3.30;;;;;;5054146;28;20201;-64
2022/12/28 11:11:18;;;;;;;5.60;5.20;;;11.70;1.00;;;;;;5053646;28;20261;-64
2022/12/28 11:13:49;;;;;;;4.23;4.03;;;11.70;4.60;;;;;;5033479;28;20175;-64
2022/12/28 11:16:14;;;;;;;4.30;4.10;;;11.80;11.40;;;;;;5053694;28;20259;-65
2022/12/28 11:18:40;;;;;;;3.93;3.77;;;11.80;1.00;;;;;;5053705;28;20276;-65
2022/12/28 11:21:10;;;;;;;5.10;4.53;;;11.70;1.00;;;;;;5053267;28;20174;-64
2022/12/28 11:23:37;;;;;;;4.33;4.13;;;11.70;2.40;;;;;;5053969;28;20183;-64
2022/12/28 11:26:03;;;;;;;5.00;4.70;;;11.70;1.00;;;;;;5053805;28;20174;-64
2022/12/28 11:28:28;;;;;;;5.17;4.77;;;11.70;1.00;;;;;;5053421;28;20693;-64
2022/12/28 11:30:55;;;;;;;4.53;4.33;;;11.70;1.00;;;;;;5053114;28;20175;-64
2022/12/28 11:33:31;;;;;;;5.03;4.73;;;11.60;1.00;;;;;;5053516;28;20182;-64
2022/12/28 11:35:57;;;;;;;10.07;6.17;;;11.60;1.00;;;;;;5033529;28;20202;-64
2022/12/28 11:38:41;;;;;;;7.07;6.47;;;11.60;1.00;;;;;;5033591;28;20168;-64
2022/12/28 11:41:22;;;;;;;5.80;5.30;;;11.60;1.00;;;;;;5033214;28;20187;-65
2022/12/28 11:43:52;;;;;;;4.93;4.73;;;11.50;1.00;;;;;;5034374;28;20198;-63
2022/12/28 11:46:20;;;;;;;5.03;4.83;;;11.50;1.00;;;;;;5015644;28;20265;-64
2022/12/28 11:48:57;;;;;;;4.63;4.43;;;11.50;1.00;;;;;;5034849;28;20199;-64
2022/12/28 11:51:24;;;;;;;4.03;3.83;;;11.50;1.00;;;;;;5053085;28;20177;-64
2022/12/28 11:54:02;;;;;;;4.50;4.30;;;11.50;1.00;;;;;;5052977;28;20173;-64
2022/12/28 11:56:42;;;;;;;6.00;5.60;;;11.50;1.00;;;;;;5053456;28;20170;-64
2022/12/28 11:59:27;;;;;;;4.90;4.70;;;11.40;1.00;;;;;;5052019;28;20202;-64
2022/12/28 12:02:19;;;;;;;4.60;4.40;;;11.30;1.00;;;;;;5052454;28;20531;-64
2022/12/28 12:04:45;;;;;;;5.13;4.93;;;11.30;1.00;;;;;;5052589;28;20186;-64
2022/12/28 12:07:20;;;;;;;5.40;5.20;;;11.30;1.00;;;;;;5052863;28;20178;-64
2022/12/28 12:09:48;;;;;;;6.33;6.00;;;11.30;1.00;;;;;;5052226;28;20332;-64
2022/12/28 12:12:14;;;;;;;5.10;4.90;;;11.30;1.00;;;;;;5052771;28;20181;-64
2022/12/28 12:14:39;;;;;;;5.27;4.97;;;11.30;1.00;;;;;;5052309;28;20756;-64
2022/12/28 12:17:20;;;;;;;4.73;4.53;;;11.30;1.00;;;;;;5049255;28;20621;-64
2022/12/28 12:19:53;;;;;;;5.50;5.07;;;11.20;1.00;;;;;;5049385;28;20187;-65
2022/12/28 12:22:41;;;;;;;4.77;4.57;;;11.20;1.00;;;;;;5052413;28;20198;-64
2022/12/28 12:25:25;;;;;;;4.90;4.70;;;11.20;1.00;;;;;;5052432;28;20675;-64
2022/12/28 12:28:20;;;;;;;4.70;4.50;;;11.20;1.00;;;;;;5052084;28;20238;-64
2022/12/28 12:30:46;;;;;;;5.20;4.93;;;11.20;1.00;;;;;;5016195;28;20664;-64
2022/12/28 12:33:17;;;;;;;4.67;4.43;;;11.10;1.00;;;;;;5051763;28;20208;-64
2022/12/28 12:36:06;;;;;;;4.27;4.07;;;11.10;1.00;;;;;;5052214;28;20218;-64
2022/12/28 12:39:07;;;;;;;4.50;4.30;;;11.10;1.00;;;;;;5051214;28;20852;-64
2022/12/28 12:41:48;;;;;;;4.13;3.93;;;11.10;1.00;;;;;;5051880;28;20178;-64
2022/12/28 12:44:34;;;;;;;3.90;3.80;;;11.10;1.00;;;;;;5051826;28;20177;-64
2022/12/28 12:47:24;;;;;;;14.53;4.10;;;11.10;1.00;;;;;;5051008;28;20246;-65
2022/12/28 12:50:24;;;;;;;4.20;4.00;;;11.10;1.00;;;;;;5040079;28;20294;-64
2022/12/28 12:52:55;;;;;;;4.17;3.97;;;11.10;1.00;;;;;;5042384;28;20651;-64
2022/12/28 12:55:29;;;;;;;5.13;4.90;;;11.20;1.00;;;;;;5051897;28;20236;-64
2022/12/28 12:58:07;;;;;;;4.90;4.70;;;11.10;1.00;;;;;;5051557;28;20193;-64
2022/12/28 13:00:55;;;;;;;5.10;4.70;;;11.10;1.00;;;;;;5051425;28;20704;-64
2022/12/28 13:03:43;;;;;;;4.43;4.23;;;11.10;1.00;;;;;;5051645;28;20175;-64
2022/12/28 13:06:14;;;;;;;4.87;4.67;;;11.10;1.00;;;;;;5051716;28;20258;-64
2022/12/28 13:08:50;;;;;;;5.00;4.50;;;11.10;1.00;;;;;;5051527;28;20530;-64
2022/12/28 13:11:17;;;;;;;4.50;4.30;;;11.10;1.00;;;;;;5051384;28;20285;-64
2022/12/28 13:13:45;;;;;;;4.40;4.10;;;11.00;1.00;;;;;;5051524;28;20712;-64
2022/12/28 13:16:16;;;;;;;4.10;3.80;;;11.00;1.00;;;;;;5051416;28;20216;-64
2022/12/28 13:19:15;;;;;;;4.07;3.83;;;11.00;1.00;;;;;;5051323;28;20202;-64
2022/12/28 13:21:47;;;;;;;4.60;4.40;;;11.00;1.00;;;;;;5029129;28;20190;-64
2022/12/28 13:24:22;;;;;;;4.97;4.77;;;11.00;1.00;;;;;;5049322;28;20182;-64
2022/12/28 13:26:47;;;;;;;4.57;4.37;;;11.00;1.00;;;;;;5051041;28;20259;-64
2022/12/28 13:29:18;;;;;;;4.33;4.13;;;11.00;1.00;;;;;;5051209;28;20234;-64
2022/12/28 13:31:48;;;;;;;5.30;4.40;;;11.00;1.00;;;;;;5051228;28;20182;-65
2022/12/28 13:34:21;;;;;;;4.47;4.07;;;11.00;1.00;;;;;;5051407;28;20198;-64
2022/12/28 13:36:58;;;;;;;5.33;4.83;;;11.00;1.00;;;;;;5051321;28;20231;-64
2022/12/28 13:39:33;;;;;;;4.20;4.00;;;11.00;1.00;;;;;;5050944;28;20213;-64
2022/12/28 13:42:03;;;;;;;4.50;4.30;;;11.00;1.00;;;;;;5050990;28;20174;-64